Time;durP1;ratioP1;P1;durP2;ratioP2;P2;SDS_P1;SDS_P2;PMS_P1;PMS_P2;Temp;Humidity;BMP_temperature;BMP_pressure;BME280_temperature;BME280_humidity;BME280_pressure;Samples;Min_cycle;Max_cycle;Signal;HPM_P1;HPM_P2
2022/10/02 00:00:50;;;;;;;5.32;2.65;;;;;;;10.93;100.00;98713.72;8273733;28;20069;-79
2022/10/02 00:05:38;;;;;;;7.10;2.63;;;;;;;10.95;100.00;98722.28;8278506;28;20137;-81
2022/10/02 00:09:48;;;;;;;6.45;3.00;;;;;;;10.96;100.00;98729.28;8280597;28;20181;-81
2022/10/02 00:13:58;;;;;;;9.70;2.75;;;;;;;10.95;100.00;98738.50;8285187;28;20054;-81
2022/10/02 00:18:06;;;;;;;6.88;2.40;;;;;;;10.95;100.00;98738.50;8275856;28;20511;-81
2022/10/02 00:22:13;;;;;;;;;;;;;;;10.96;100.00;98754.41;8274570;28;20065;-80
2022/10/02 00:26:18;;;;;;;5.30;1.98;;;;;;;10.97;99.90;98757.88;8273386;28;19967;-82
2022/10/02 00:30:19;;;;;;;7.25;2.60;;;;;;;10.97;100.00;98747.09;8266196;28;20418;-81
2022/10/02 00:34:48;;;;;;;6.15;1.85;;;;;;;10.95;100.00;98771.72;8284475;28;20141;-82
2022/10/02 00:38:55;;;;;;;8.87;2.37;;;;;;;10.95;100.00;98771.72;8328022;28;20497;-82
2022/10/02 00:43:20;;;;;;;5.85;2.20;;;;;;;10.94;100.00;98772.06;8343100;28;20295;-81
2022/10/02 00:47:27;;;;;;;11.77;2.42;;;;;;;10.96;100.00;98772.50;8415248;28;20508;-82
2022/10/02 00:52:05;;;;;;;8.38;2.63;;;;;;;10.97;100.00;98779.50;8405181;28;20127;-81
2022/10/02 00:56:15;;;;;;;9.05;2.85;;;;;;;10.95;100.00;98781.72;8413857;28;20085;-82
2022/10/02 01:00:18;;;;;;;5.47;2.45;;;;;;;10.96;100.00;98788.72;8403829;28;20405;-81
2022/10/02 01:04:38;;;;;;;5.20;2.42;;;;;;;10.97;100.00;98801.13;8398869;28;20083;-83
2022/10/02 01:08:39;;;;;;;5.47;2.33;;;;;;;10.97;100.00;98806.53;8364994;28;20385;-83
2022/10/02 01:12:41;;;;;;;5.15;2.30;;;;;;;10.96;100.00;98804.94;8414437;28;20485;-81
2022/10/02 01:16:44;;;;;;;7.30;2.85;;;;;;;10.95;100.00;98804.13;8400631;28;20131;-84
2022/10/02 01:20:50;;;;;;;6.18;2.40;;;;;;;10.97;100.00;98806.53;8403542;28;20036;-82
2022/10/02 01:24:55;;;;;;;6.00;2.60;;;;;;;10.99;100.00;98798.91;8363220;28;20054;-82
2022/10/02 01:28:56;;;;;;;10.73;3.30;;;;;;;10.98;100.00;98814.31;8404997;28;21219;-82
2022/10/02 01:32:59;;;;;;;8.50;2.90;;;;;;;11.01;100.00;98823.69;8411284;28;20048;-83
2022/10/02 01:37:01;;;;;;;6.05;3.17;;;;;;;11.01;100.00;98823.69;8399194;28;20060;-82
2022/10/02 01:41:02;;;;;;;5.13;2.20;;;;;;;11.00;100.00;98827.50;8405748;28;20614;-82
2022/10/02 01:45:05;;;;;;;8.88;2.63;;;;;;;11.03;100.00;98832.28;8402954;28;20086;-81
2022/10/02 01:49:32;;;;;;;9.05;3.00;;;;;;;11.01;100.00;98839.91;8407743;28;20462;-82
2022/10/02 01:53:44;;;;;;;5.57;2.50;;;;;;;11.03;100.00;98843.09;8399919;28;20040;-83
2022/10/02 01:57:57;;;;;;;9.95;2.33;;;;;;;11.03;100.00;98848.50;8412918;28;20060;-81
2022/10/02 02:01:57;;;;;;;7.60;2.30;;;;;;;11.04;100.00;98858.19;8404750;28;20192;-82
2022/10/02 02:06:20;;;;;;;12.13;2.53;;;;;;;11.03;100.00;98870.09;8409268;28;20075;-81
2022/10/02 02:10:40;;;;;;;7.78;2.53;;;;;;;11.04;100.00;98871.69;8401538;28;20056;-81
2022/10/02 02:14:49;;;;;;;11.13;2.60;;;;;;;11.02;100.00;98873.91;8404447;28;20044;-81
2022/10/02 02:18:58;;;;;;;13.63;2.65;;;;;;;11.05;100.00;98884.09;8401861;28;20051;-81
2022/10/02 02:23:08;;;;;;;5.53;2.42;;;;;;;11.03;100.00;98891.72;8367373;28;20488;-83
2022/10/02 02:27:12;;;;;;;11.38;2.50;;;;;;;11.03;100.00;98897.13;8358799;28;20049;-81
2022/10/02 02:31:17;;;;;;;9.27;2.20;;;;;;;11.03;100.00;98905.25;8342750;28;20138;-83
2022/10/02 02:35:27;;;;;;;5.40;2.10;;;;;;;11.01;100.00;98899.34;8342402;28;20049;-85
2022/10/02 02:39:35;;;;;;;5.45;2.00;;;;;;;11.00;100.00;98905.84;8298425;28;20181;-80
2022/10/02 02:43:46;;;;;;;8.18;2.05;;;;;;;11.01;100.00;98915.56;8335702;28;20538;-81
2022/10/02 02:47:54;;;;;;;8.10;2.65;;;;;;;11.00;100.00;98914.75;8343995;28;20162;-81
2022/10/02 02:51:58;;;;;;;;;;;;;;;11.01;100.00;98918.25;8264798;28;20523;-82
2022/10/02 02:56:00;;;;;;;9.75;2.35;;;;;;;10.98;100.00;98921.59;8237886;28;19933;-81
2022/10/02 03:00:04;;;;;;;9.52;2.63;;;;;;;10.95;100.00;98917.63;8262333;28;20641;-84
2022/10/02 03:04:05;;;;;;;14.50;2.75;;;;;;;10.95;100.00;98933.03;8289192;28;20530;-80
2022/10/02 03:08:27;;;;;;;15.25;3.70;;;;;;;10.93;100.00;98930.66;8337759;28;20050;-81
2022/10/02 03:12:39;;;;;;;14.38;2.65;;;;;;;10.94;100.00;98932.22;8289937;28;20050;-81
2022/10/02 03:16:49;;;;;;;10.63;2.60;;;;;;;10.93;100.00;98936.06;8294365;28;20053;-81
2022/10/02 03:21:13;;;;;;;10.63;2.70;;;;;;;10.92;100.00;98933.66;8318867;28;20616;-80
2022/10/02 03:25:30;;;;;;;13.65;3.20;;;;;;;10.89;99.63;98934.31;8405711;28;20078;-81
2022/10/02 03:29:39;;;;;;;;;;;;;;;10.87;99.63;98937.31;8415015;28;20139;-79
2022/10/02 03:33:40;;;;;;;13.73;3.33;;;;;;;10.90;99.19;98941.28;8408084;28;19920;-80
2022/10/02 03:37:46;;;;;;;12.70;3.08;;;;;;;10.90;99.35;98946.69;8402770;28;20041;-82
2022/10/02 03:41:47;;;;;;;14.90;2.58;;;;;;;10.92;99.27;98955.28;8386009;28;20422;-81
2022/10/02 03:45:48;;;;;;;7.63;2.58;;;;;;;10.94;99.21;98955.78;8403472;28;20051;-80
2022/10/02 03:49:49;;;;;;;13.32;2.92;;;;;;;10.94;99.16;98963.88;8408890;28;20049;-80
2022/10/02 03:53:51;;;;;;;11.07;2.55;;;;;;;10.93;99.19;98956.88;8409965;28;20050;-81
2022/10/02 03:57:53;;;;;;;11.85;2.45;;;;;;;10.93;99.36;98967.69;8408145;28;20105;-81
2022/10/02 04:01:54;;;;;;;12.00;2.70;;;;;;;10.90;99.12;98979.09;8417281;28;20058;-80
2022/10/02 04:06:00;;;;;;;22.48;3.55;;;;;;;10.91;98.92;98980.69;8413641;28;20387;-83
2022/10/02 04:10:31;;;;;;;12.45;3.00;;;;;;;10.89;98.92;98977.53;8402742;28;20052;-81
2022/10/02 04:14:38;;;;;;;13.48;3.00;;;;;;;10.89;98.79;98982.94;8385737;28;20086;-81
2022/10/02 04:18:46;;;;;;;12.68;3.10;;;;;;;10.88;98.69;98992.16;8412749;28;20059;-82
2022/10/02 04:22:54;;;;;;;16.92;3.03;;;;;;;10.87;98.74;98988.66;8426845;28;20055;-81
2022/10/02 04:26:58;;;;;;;13.43;2.88;;;;;;;10.87;98.67;98993.25;8399205;28;20123;-82
2022/10/02 04:31:01;;;;;;;15.63;2.95;;;;;;;10.87;98.77;98987.84;8408356;28;20052;-81
2022/10/02 04:35:16;;;;;;;20.30;3.35;;;;;;;10.86;98.66;98994.34;8388426;28;20076;-80
2022/10/02 04:39:18;;;;;;;16.83;2.85;;;;;;;10.86;98.92;99007.84;8426086;28;20060;-81
2022/10/02 04:43:43;;;;;;;15.98;2.75;;;;;;;10.86;98.88;99015.97;8411040;28;20044;-81
2022/10/02 04:48:13;;;;;;;14.77;2.90;;;;;;;10.87;98.66;99009.47;8400270;28;20135;-82
2022/10/02 04:52:44;;;;;;;11.43;2.80;;;;;;;10.87;98.97;99012.16;8402280;28;20363;-81
2022/10/02 04:57:01;;;;;;;18.00;3.35;;;;;;;10.89;98.72;99020.75;8248711;28;20834;-82
2022/10/02 05:01:27;;;;;;;14.95;2.47;;;;;;;10.87;98.74;99012.16;8248639;28;20160;-87
2022/10/02 05:05:34;;;;;;;13.20;2.42;;;;;;;10.88;98.63;99019.97;8190580;28;20058;-82
2022/10/02 05:10:00;;;;;;;17.05;2.72;;;;;;;10.88;98.85;99024.56;8214911;28;20059;-80
2022/10/02 05:14:19;;;;;;;23.83;3.45;;;;;;;10.90;98.39;99017.72;8193958;28;20051;-82
2022/10/02 05:18:45;;;;;;;11.60;2.20;;;;;;;10.91;98.21;99013.13;8194253;28;20134;-82
2022/10/02 05:23:09;;;;;;;14.63;2.35;;;;;;;10.92;98.23;99028.22;8195406;29;20134;-83
2022/10/02 05:27:27;;;;;;;13.43;2.55;;;;;;;10.92;98.23;99028.22;8173690;29;20493;-83
2022/10/02 05:31:59;;;;;;;15.48;2.75;;;;;;;10.93;97.89;99032.53;8209560;28;20046;-84
2022/10/02 05:36:06;;;;;;;14.13;2.38;;;;;;;10.96;97.58;99031.88;8292841;28;20150;-82
2022/10/02 05:40:30;;;;;;;14.35;2.20;;;;;;;10.98;97.79;99029.69;8302222;28;20435;-86
2022/10/02 05:44:39;;;;;;;13.25;1.98;;;;;;;10.98;97.67;99041.28;8385807;28;20665;-85
2022/10/02 05:48:44;;;;;;;12.00;1.88;;;;;;;11.01;97.55;99045.25;8391202;28;20673;-83
2022/10/02 05:53:08;;;;;;;15.57;2.65;;;;;;;11.02;97.39;99046.84;8393940;28;20055;-83
2022/10/02 05:57:33;;;;;;;15.13;2.35;;;;;;;11.05;97.13;99040.81;8358014;28;20063;-82
2022/10/02 06:01:41;;;;;;;15.15;2.58;;;;;;;11.05;96.85;99040.81;8354664;28;20076;-84
2022/10/02 06:06:10;;;;;;;8.70;2.00;;;;;;;11.07;96.98;99049.41;8277958;28;20046;-83
2022/10/02 06:10:21;;;;;;;11.45;2.13;;;;;;;11.10;96.73;99054.22;8274725;28;20144;-82
2022/10/02 06:14:26;;;;;;;15.27;2.45;;;;;;;11.14;96.56;99049.78;8292060;28;20050;-82
2022/10/02 06:18:32;;;;;;;11.20;2.65;;;;;;;11.15;96.22;99051.38;8276858;28;20058;-82
2022/10/02 06:22:44;;;;;;;8.23;2.00;;;;;;;11.17;96.13;99054.53;8227797;28;20061;-82
2022/10/02 06:26:46;;;;;;;9.85;1.95;;;;;;;11.21;96.12;99055.50;8209389;28;20061;-82
2022/10/02 06:31:13;;;;;;;13.25;2.30;;;;;;;11.25;96.06;99056.47;8215100;28;20051;-82
2022/10/02 06:35:15;;;;;;;10.32;2.78;;;;;;;11.24;96.00;99054.88;8281636;28;20442;-86
2022/10/02 06:39:28;;;;;;;15.63;2.47;;;;;;;11.28;96.04;99060.44;8274631;28;21413;-83
2022/10/02 06:43:59;;;;;;;13.25;2.10;;;;;;;11.27;95.86;99059.66;8265548;28;20093;-83
2022/10/02 06:48:22;;;;;;;9.20;2.58;;;;;;;11.51;95.49;99066.56;8324743;28;20132;-84
2022/10/02 06:52:48;;;;;;;7.95;2.10;;;;;;;11.58;94.55;99058.78;8349394;28;20044;-82
2022/10/02 06:57:10;;;;;;;10.45;1.98;;;;;;;11.50;94.51;99065.75;8393147;28;20050;-85
2022/10/02 07:01:42;;;;;;;11.90;2.17;;;;;;;11.53;94.71;99067.03;8388627;28;20068;-81
2022/10/02 07:06:08;;;;;;;11.13;2.30;;;;;;;11.74;94.07;99068.03;8392254;28;20051;-83
2022/10/02 07:10:21;;;;;;;9.90;2.28;;;;;;;11.90;93.74;99066.47;8393587;28;20055;-84
2022/10/02 07:14:33;;;;;;;13.63;2.30;;;;;;;11.85;93.42;99085.56;8383782;28;20057;-80
2022/10/02 07:18:52;;;;;;;11.05;2.35;;;;;;;11.67;95.20;99073.09;8385153;28;20564;-82
2022/10/02 07:23:19;;;;;;;14.90;3.03;;;;;;;11.52;96.82;99087.09;8391249;28;20131;-82
2022/10/02 07:27:42;;;;;;;13.35;2.58;;;;;;;11.41;98.04;99092.78;8392655;28;20115;-81
2022/10/02 07:31:52;;;;;;;15.05;2.85;;;;;;;11.53;98.35;99094.06;8372668;28;20037;-82
2022/10/02 07:36:02;;;;;;;17.70;2.67;;;;;;;11.50;98.42;99097.41;8392846;28;20049;-81
2022/10/02 07:40:28;;;;;;;14.82;2.83;;;;;;;11.55;98.57;99108.06;8357100;28;20082;-82
2022/10/02 07:44:37;;;;;;;13.18;2.50;;;;;;;11.55;98.62;99102.66;8390378;28;21564;-83
2022/10/02 07:48:59;;;;;;;22.00;2.60;;;;;;;11.63;98.41;99099.19;8391606;28;20474;-82
2022/10/02 07:53:19;;;;;;;17.85;3.10;;;;;;;11.66;98.56;99093.16;8390096;28;20048;-82
2022/10/02 07:57:32;;;;;;;12.70;2.65;;;;;;;11.89;98.40;99097.34;8386803;28;20135;-84
2022/10/02 08:01:36;;;;;;;19.83;3.67;;;;;;;12.00;97.49;99093.19;8395437;28;20561;-82
2022/10/02 08:05:43;;;;;;;15.65;3.25;;;;;;;12.07;97.16;99090.81;8361730;28;20045;-84
2022/10/02 08:09:47;;;;;;;14.93;3.00;;;;;;;12.22;96.31;99084.13;8399224;28;20120;-81
2022/10/02 08:14:14;;;;;;;19.05;3.10;;;;;;;12.37;96.03;99074.75;8398622;28;20048;-84
2022/10/02 08:18:27;;;;;;;15.88;2.70;;;;;;;12.58;94.76;99086.50;8398609;28;20048;-85
2022/10/02 08:22:45;;;;;;;16.48;3.03;;;;;;;12.78;93.67;99077.66;8360206;28;20581;-82
2022/10/02 08:26:59;;;;;;;14.93;3.00;;;;;;;12.82;92.61;99067.75;8396608;28;20071;-82
2022/10/02 08:31:01;;;;;;;13.38;2.22;;;;;;;12.83;92.02;99074.78;8381026;28;20044;-83
2022/10/02 08:35:11;;;;;;;8.52;2.17;;;;;;;13.03;90.58;99070.56;8396311;28;20100;-82
2022/10/02 08:39:49;;;;;;;10.68;2.00;;;;;;;13.15;89.17;99061.78;8392865;28;20076;-81
2022/10/02 08:44:41;;;;;;;14.70;3.00;;;;;;;13.14;87.92;99071.00;8396844;28;20050;-82
2022/10/02 08:49:21;;;;;;;14.80;2.33;;;;;;;13.24;88.31;99063.31;8288369;28;20490;-84
2022/10/02 08:53:43;;;;;;;12.63;2.85;;;;;;;13.23;87.79;99064.44;8294154;28;20411;-86
2022/10/02 08:58:01;;;;;;;9.52;1.80;;;;;;;13.31;87.57;99060.09;8293687;28;20050;-84
2022/10/02 09:02:26;;;;;;;14.10;2.97;;;;;;;13.59;86.66;99060.41;8290198;28;20140;-84
2022/10/02 09:06:29;;;;;;;11.20;2.17;;;;;;;13.85;85.15;99053.66;8295325;28;20046;-82
2022/10/02 09:10:54;;;;;;;13.88;3.10;;;;;;;14.00;85.50;99048.75;8296402;28;20136;-83
2022/10/02 09:15:01;;;;;;;6.82;1.80;;;;;;;14.02;85.45;99068.22;8292289;28;20050;-84
2022/10/02 09:19:45;;;;;;;16.02;2.55;;;;;;;13.82;85.19;99059.75;8293847;28;20061;-84
2022/10/02 09:23:54;;;;;;;11.63;1.77;;;;;;;13.74;84.08;99047.06;8281916;28;20059;-85
2022/10/02 09:28:06;;;;;;;6.72;1.73;;;;;;;14.02;83.91;99046.50;8326855;28;20486;-84
2022/10/02 09:32:33;;;;;;;17.20;2.50;;;;;;;14.33;81.94;99055.00;8326218;28;20427;-84
2022/10/02 09:37:11;;;;;;;15.98;2.30;;;;;;;14.42;81.51;99044.09;8289617;28;20049;-85
2022/10/02 09:41:49;;;;;;;5.63;1.55;;;;;;;14.29;80.63;99045.94;8325933;28;20551;-82
2022/10/02 09:46:11;;;;;;;8.57;2.30;;;;;;;14.09;81.42;99046.75;8325249;28;20055;-82
2022/10/02 09:50:39;;;;;;;9.70;2.30;;;;;;;14.21;81.54;99049.53;8323636;28;20093;-81
2022/10/02 09:54:52;;;;;;;7.97;1.80;;;;;;;14.52;80.91;99044.47;8320129;28;20117;-81
2022/10/02 09:59:11;;;;;;;13.90;1.73;;;;;;;14.91;79.03;99034.13;8391630;28;20056;-83
2022/10/02 10:03:21;;;;;;;5.82;1.42;;;;;;;15.20;75.78;99042.03;8395649;28;20060;-84
2022/10/02 10:07:51;;;;;;;5.78;1.80;;;;;;;15.24;74.14;99042.94;8386813;28;20174;-87
2022/10/02 10:12:10;;;;;;;9.50;1.73;;;;;;;15.19;73.98;99043.16;8292611;28;20042;-81
2022/10/02 10:16:29;;;;;;;11.52;1.85;;;;;;;15.13;74.52;99041.81;8292696;28;20042;-85
2022/10/02 10:20:39;;;;;;;6.17;1.53;;;;;;;15.07;74.12;99043.16;8292429;28;20053;-87
2022/10/02 10:25:01;;;;;;;7.60;1.98;;;;;;;15.04;74.26;99033.78;8292099;28;20046;-82
2022/10/02 10:29:47;;;;;;;11.45;1.80;;;;;;;14.97;75.35;99021.84;8275196;28;20411;-81
2022/10/02 10:34:25;;;;;;;8.38;1.73;;;;;;;15.15;75.63;99023.22;8294206;28;20220;-81
2022/10/02 10:38:51;;;;;;;12.00;2.10;;;;;;;15.29;74.82;99018.22;8292026;28;20169;-86
2022/10/02 10:43:14;;;;;;;11.45;2.45;;;;;;;15.39;74.52;99006.88;8259925;28;20050;-83
2022/10/02 10:47:21;;;;;;;11.07;2.40;;;;;;;15.53;74.46;99001.91;8306825;28;20131;-85
2022/10/02 10:52:07;;;;;;;18.55;6.35;;;;;;;15.84;74.13;98989.56;8389948;28;20052;-83
2022/10/02 10:56:35;;;;;;;9.95;1.90;;;;;;;16.16;72.14;98996.69;8257671;28;20188;-82
2022/10/02 11:01:05;;;;;;;8.38;1.70;;;;;;;15.80;71.51;98994.13;8256981;28;20137;-85
2022/10/02 11:05:15;;;;;;;14.23;2.42;;;;;;;15.62;72.10;98988.94;8240712;28;20245;-82
2022/10/02 11:09:25;;;;;;;15.05;5.00;;;;;;;15.62;72.42;98991.69;8256542;28;20046;-82
2022/10/02 11:14:02;;;;;;;15.07;3.35;;;;;;;15.48;72.88;98988.50;8256607;28;20038;-83
2022/10/02 11:18:14;;;;;;;18.25;6.30;;;;;;;15.70;71.03;98994.63;8234662;28;20059;-82
2022/10/02 11:22:29;;;;;;;25.08;5.88;;;;;;;16.09;71.68;98985.59;8255681;28;20061;-84
2022/10/02 11:26:52;;;;;;;10.02;2.40;;;;;;;16.44;69.27;98981.09;8258972;28;20196;-82
2022/10/02 11:31:17;;;;;;;16.27;4.40;;;;;;;16.71;68.20;98978.66;8269685;28;20056;-82
2022/10/02 11:35:27;;;;;;;42.67;10.73;;;;;;;16.50;68.52;98972.69;8383409;28;20045;-80
2022/10/02 11:39:57;;;;;;;21.92;5.65;;;;;;;16.06;69.25;98969.97;8391016;28;20049;-82
2022/10/02 11:44:09;;;;;;;17.08;4.32;;;;;;;15.82;71.06;98964.59;8262586;28;20081;-82
2022/10/02 11:48:12;;;;;;;9.82;2.53;;;;;;;15.59;72.62;98967.09;8214161;28;20077;-83
2022/10/02 11:52:29;;;;;;;24.05;7.05;;;;;;;15.31;74.00;98972.44;8262952;28;20445;-81
2022/10/02 11:56:52;;;;;;;13.77;4.28;;;;;;;15.13;75.06;98962.94;8262554;28;20116;-82
2022/10/02 12:01:05;;;;;;;11.95;3.05;;;;;;;14.95;75.88;98969.75;8245480;28;20048;-81
2022/10/02 12:05:07;;;;;;;16.42;2.25;;;;;;;14.70;76.47;98975.16;8260640;28;20047;-80
2022/10/02 12:09:34;;;;;;;11.38;2.58;;;;;;;14.34;79.79;98999.53;8257474;28;20050;-82
2022/10/02 12:14:22;;;;;;;17.95;4.80;;;;;;;13.67;86.54;98987.06;8260899;28;20133;-81
2022/10/02 12:18:58;;;;;;;31.27;8.90;;;;;;;13.38;88.77;98985.19;8267280;28;20318;-82
2022/10/02 12:28:11;;;;;;;10.82;2.70;;;;;;;13.71;89.30;98971.72;8395158;28;20048;-82
2022/10/02 12:32:38;;;;;;;8.85;2.25;;;;;;;14.01;89.18;98958.81;8396878;28;20040;-81
2022/10/02 12:36:57;;;;;;;8.57;3.10;;;;;;;14.23;88.74;98944.84;8394720;28;20060;-80
2022/10/02 12:41:16;;;;;;;14.57;2.83;;;;;;;14.39;88.67;98953.16;8395918;28;20048;-81
2022/10/02 12:45:42;;;;;;;6.65;2.85;;;;;;;14.45;88.80;98951.81;8392805;28;20044;-83
2022/10/02 12:50:22;;;;;;;10.68;3.95;;;;;;;14.50;88.79;98954.31;8393017;28;20053;-82
2022/10/02 12:54:32;;;;;;;8.55;2.20;;;;;;;14.37;89.74;98950.00;8392094;28;20043;-79
2022/10/02 12:58:45;;;;;;;9.07;1.90;;;;;;;14.21;88.82;98935.47;8378200;28;20139;-80
2022/10/02 13:03:27;;;;;;;4.45;1.67;;;;;;;14.18;87.92;98930.69;8395183;28;20036;-81
2022/10/02 13:07:50;;;;;;;5.88;1.55;;;;;;;14.01;87.29;98925.47;8260590;28;20124;-81
2022/10/02 13:12:17;;;;;;;5.78;1.63;;;;;;;13.92;86.88;98934.47;8245226;28;20061;-82
2022/10/02 13:16:45;;;;;;;6.90;1.70;;;;;;;13.90;86.51;98931.31;8260490;28;20389;-80
2022/10/02 13:21:00;;;;;;;7.35;1.90;;;;;;;14.04;86.16;98913.91;8244553;28;20053;-84
2022/10/02 13:25:20;;;;;;;6.70;1.90;;;;;;;14.32;85.01;98914.88;8260840;28;20046;-82
2022/10/02 13:29:24;;;;;;;12.35;2.20;;;;;;;14.44;83.01;98909.47;8259036;28;20046;-82
2022/10/02 13:33:46;;;;;;;8.90;2.50;;;;;;;14.78;83.14;98900.88;8259139;28;20476;-82
2022/10/02 13:37:56;;;;;;;9.25;2.33;;;;;;;14.77;82.78;98904.72;8259496;28;20077;-82
2022/10/02 13:42:41;;;;;;;10.27;2.58;;;;;;;14.77;82.07;98899.28;8314112;28;20509;-82
2022/10/02 13:46:54;;;;;;;7.10;2.42;;;;;;;15.01;80.10;98892.25;8291707;28;20054;-82
2022/10/02 13:51:05;;;;;;;8.45;2.38;;;;;;;15.24;78.59;98885.16;8292247;28;20062;-81
2022/10/02 13:55:46;;;;;;;11.15;1.77;;;;;;;15.30;76.63;98883.78;8292965;28;20062;-82
2022/10/02 13:59:53;;;;;;;4.95;1.35;;;;;;;15.85;75.33;98871.34;8163485;29;20050;-84
2022/10/02 14:04:15;;;;;;;7.18;1.67;;;;;;;15.90;74.23;98873.81;8166409;29;20474;-84
2022/10/02 14:08:48;;;;;;;7.05;2.17;;;;;;;15.83;74.70;98862.72;8163825;29;20516;-82
2022/10/02 14:12:59;;;;;;;4.03;1.50;;;;;;;15.56;74.27;98865.13;8162427;29;20050;-81
2022/10/02 14:17:38;;;;;;;4.55;1.60;;;;;;;15.42;75.75;98856.53;8164663;29;20060;-84
2022/10/02 14:22:20;;;;;;;7.47;1.80;;;;;;;15.08;76.71;98860.59;8269057;28;20046;-85
2022/10/02 14:26:56;;;;;;;6.20;1.75;;;;;;;14.68;77.63;98863.28;8129592;29;20056;-82
2022/10/02 14:31:07;;;;;;;12.18;1.83;;;;;;;14.41;78.75;98863.97;8115046;29;20047;-83
2022/10/02 14:35:23;;;;;;;11.30;3.47;;;;;;;14.23;79.73;98873.44;8208656;28;20425;-83
2022/10/02 14:39:40;;;;;;;13.18;5.38;;;;;;;14.06;80.33;98868.22;8257376;28;20522;-83
2022/10/02 14:44:05;;;;;;;10.20;2.70;;;;;;;13.99;80.39;98879.63;8254984;28;20053;-82
2022/10/02 14:48:29;;;;;;;7.53;2.65;;;;;;;14.05;80.86;98880.22;8257485;28;20196;-84
2022/10/02 14:53:02;;;;;;;14.90;3.15;;;;;;;14.12;80.93;98875.00;8223861;28;20531;-85
2022/10/02 14:57:15;;;;;;;8.80;2.58;;;;;;;14.15;81.18;98871.63;8147168;28;20147;-82
2022/10/02 15:01:16;;;;;;;10.13;3.13;;;;;;;14.16;81.57;98867.78;8248798;28;20049;-84
2022/10/02 15:05:41;;;;;;;7.25;3.20;;;;;;;14.13;82.00;98863.00;8336857;28;20537;-83
2022/10/02 15:10:00;;;;;;;12.00;2.97;;;;;;;14.09;82.59;98862.91;8336927;28;20087;-83
2022/10/02 15:14:16;;;;;;;16.52;3.97;;;;;;;14.04;83.05;98865.03;8337314;28;20564;-84
2022/10/02 15:18:36;;;;;;;14.85;5.22;;;;;;;14.01;83.61;98873.88;8340080;28;20056;-83
2022/10/02 15:23:03;;;;;;;18.65;5.53;;;;;;;13.91;84.99;98884.00;8338691;28;20045;-82
2022/10/02 15:27:14;;;;;;;17.45;3.33;;;;;;;13.63;88.09;98937.31;8333085;28;20053;-85
2022/10/02 15:31:31;;;;;;;7.25;2.33;;;;;;;13.13;91.20;98923.81;8388720;28;20085;-85
2022/10/02 15:35:50;;;;;;;4.82;2.28;;;;;;;12.95;92.54;98919.59;8387279;28;20041;-83
2022/10/02 15:39:51;;;;;;;;;;;;;;;12.85;92.82;98923.47;8391347;28;20549;-85
2022/10/02 15:44:30;;;;;;;6.70;2.00;;;;;;;12.61;93.57;98934.13;8390559;28;19974;-84
2022/10/02 15:48:46;;;;;;;13.47;3.27;;;;;;;12.46;93.84;98931.97;8390781;28;20047;-83
2022/10/02 15:53:19;;;;;;;6.25;1.88;;;;;;;12.27;94.54;98922.31;8389378;28;20055;-83
2022/10/02 15:58:04;;;;;;;11.00;2.97;;;;;;;12.16;94.93;98934.59;8390032;28;20045;-83
2022/10/02 16:02:29;;;;;;;8.38;2.40;;;;;;;12.15;94.90;98933.03;8256461;28;20075;-83
2022/10/02 16:06:49;;;;;;;11.70;2.50;;;;;;;12.12;94.65;98943.69;8257142;28;20070;-84
2022/10/02 16:11:08;;;;;;;;;;;;;;;12.06;94.91;98945.78;8260625;28;20062;-83
2022/10/02 16:15:27;;;;;;;41.67;15.77;;;;;;;11.94;94.65;98942.94;8257267;28;19929;-83
2022/10/02 16:19:46;;;;;;;8.30;2.50;;;;;;;11.82;95.24;98940.09;8241514;28;20061;-83
2022/10/02 16:24:48;;;;;;;4.35;2.08;;;;;;;11.77;95.24;98948.38;8262423;28;20046;-83
2022/10/02 16:28:56;;;;;;;4.07;1.40;;;;;;;11.71;95.40;98938.81;8104556;29;20487;-83
2022/10/02 16:33:01;;;;;;;12.93;3.15;;;;;;;11.67;95.58;98943.25;8104642;29;20056;-83
2022/10/02 16:37:08;;;;;;;6.65;2.80;;;;;;;11.60;95.75;98937.53;8166257;28;20066;-83
2022/10/02 16:41:37;;;;;;;9.50;2.53;;;;;;;11.53;95.83;98939.91;8234852;28;20054;-82
2022/10/02 16:46:09;;;;;;;4.63;2.07;;;;;;;11.38;95.99;98942.00;8233513;28;20141;-83
2022/10/02 16:50:18;;;;;;;5.10;1.98;;;;;;;11.24;96.15;98952.16;8070884;29;20052;-83
2022/10/02 16:54:33;;;;;;;5.38;1.70;;;;;;;11.09;96.38;98951.81;8066747;29;20065;-83
2022/10/02 16:59:16;;;;;;;3.17;1.48;;;;;;;10.96;95.94;98950.84;8039690;29;20729;-82
2022/10/02 17:03:41;;;;;;;6.18;1.60;;;;;;;10.81;96.14;98959.38;8044378;29;20060;-82
2022/10/02 17:07:50;;;;;;;3.97;1.60;;;;;;;10.66;96.42;98951.72;8134064;29;20058;-82
2022/10/02 17:12:20;;;;;;;9.73;2.60;;;;;;;10.49;96.63;98964.03;8134463;29;20051;-82
2022/10/02 17:16:39;;;;;;;7.72;2.67;;;;;;;10.40;96.58;98965.91;8134234;29;20060;-82
2022/10/02 17:20:45;;;;;;;13.07;2.85;;;;;;;10.31;96.68;98970.44;8133860;29;20137;-82
2022/10/02 17:24:50;;;;;;;9.27;3.50;;;;;;;10.24;96.57;98980.91;8152135;28;20070;-82
2022/10/02 17:29:13;;;;;;;11.55;3.38;;;;;;;10.18;96.38;98984.84;8239950;28;20050;-82
2022/10/02 17:33:21;;;;;;;22.48;9.60;;;;;;;10.10;96.39;98989.03;8209604;28;20188;-82
2022/10/02 17:37:55;;;;;;;16.45;7.30;;;;;;;10.05;96.03;98988.34;8328526;28;20048;-82
2022/10/02 17:42:29;;;;;;;14.80;6.90;;;;;;;9.95;96.11;98988.59;8393447;28;20040;-82
2022/10/02 17:46:42;;;;;;;21.23;7.82;;;;;;;9.86;95.87;98998.56;8395467;28;20465;-82
2022/10/02 17:51:01;;;;;;;18.50;7.55;;;;;;;9.80;95.86;98991.69;8391180;28;20060;-82
2022/10/02 17:59:54;;;;;;;13.15;7.95;;;;;;;9.71;95.66;98997.81;8393948;28;20036;-81
2022/10/02 18:04:13;;;;;;;29.13;10.20;;;;;;;9.74;95.45;98997.19;8392077;28;20033;-82
2022/10/02 18:08:28;;;;;;;21.42;10.77;;;;;;;9.80;95.69;98999.75;8394696;28;20036;-83
2022/10/02 18:12:50;;;;;;;19.10;9.07;;;;;;;9.85;95.72;99013.13;8394613;28;20086;-83
2022/10/02 18:17:45;;;;;;;14.30;5.90;;;;;;;9.98;96.32;99017.69;8409799;28;20056;-83
2022/10/02 18:22:09;;;;;;;12.25;5.60;;;;;;;10.13;97.22;99010.00;8321313;28;20148;-83
2022/10/02 18:26:25;;;;;;;12.00;4.70;;;;;;;10.26;98.60;99002.97;8322178;28;20046;-82
2022/10/02 18:30:52;;;;;;;13.75;5.18;;;;;;;10.37;98.82;99015.09;8319810;28;20050;-83
2022/10/02 18:34:56;;;;;;;13.73;4.72;;;;;;;10.42;100.00;99012.25;8320936;28;20065;-83
2022/10/02 18:38:59;;;;;;;16.77;4.72;;;;;;;10.50;99.83;99013.44;8306510;28;20037;-83
2022/10/02 18:43:14;;;;;;;10.55;4.60;;;;;;;10.55;100.00;99018.69;8322395;28;20060;-82
2022/10/02 18:47:25;;;;;;;11.80;4.00;;;;;;;10.58;100.00;99026.97;8324155;28;20084;-81
2022/10/02 18:51:44;;;;;;;11.20;4.82;;;;;;;10.62;100.00;99027.16;8286109;28;20049;-81
2022/10/02 18:56:06;;;;;;;16.10;4.35;;;;;;;10.62;100.00;99026.34;8370829;28;20079;-81
2022/10/02 19:00:25;;;;;;;9.27;3.50;;;;;;;10.61;100.00;99030.16;8380585;28;20049;-82
2022/10/02 19:04:52;;;;;;;9.63;3.35;;;;;;;10.61;100.00;99019.34;8388340;28;20434;-79
2022/10/02 19:08:53;;;;;;;12.20;3.72;;;;;;;10.59;100.00;99016.97;8411158;28;20055;-81
2022/10/02 19:13:13;;;;;;;8.73;2.80;;;;;;;10.51;100.00;99023.94;8394867;28;20088;-80
2022/10/02 19:17:16;;;;;;;6.40;2.47;;;;;;;10.43;100.00;99030.06;8393549;28;20052;-81
2022/10/02 19:21:19;;;;;;;9.65;2.75;;;;;;;10.38;100.00;99032.91;8393601;28;20139;-80
2022/10/02 19:25:21;;;;;;;12.07;2.75;;;;;;;10.35;100.00;99038.91;8393905;28;20133;-80
2022/10/02 19:29:34;;;;;;;5.65;2.40;;;;;;;10.35;100.00;99044.31;8374731;28;20053;-79
2022/10/02 19:33:48;;;;;;;11.98;3.67;;;;;;;10.32;100.00;99044.91;8389478;28;20048;-80
2022/10/02 19:37:52;;;;;;;15.20;6.22;;;;;;;10.29;100.00;99056.34;8393760;28;20475;-79
2022/10/02 19:41:55;;;;;;;15.25;5.03;;;;;;;10.25;100.00;99066.16;8394889;28;20041;-79
2022/10/02 19:46:05;;;;;;;27.42;9.02;;;;;;;10.26;100.00;99067.75;8371377;28;20048;-79
2022/10/02 19:50:22;;;;;;;16.70;7.27;;;;;;;10.30;100.00;99063.34;8329524;28;20040;-80
2022/10/02 19:54:35;;;;;;;9.70;4.10;;;;;;;10.35;100.00;99063.22;8390712;28;20561;-79
2022/10/02 19:58:40;;;;;;;11.00;3.63;;;;;;;10.29;100.00;99067.16;8405622;28;20048;-79
2022/10/02 20:02:48;;;;;;;8.88;2.92;;;;;;;10.14;100.00;99070.19;8411390;28;20060;-79
2022/10/02 20:06:52;;;;;;;14.30;3.40;;;;;;;10.04;100.00;99078.53;8406369;28;20511;-79